Time;durP1;ratioP1;P1;durP2;ratioP2;P2;SDS_P1;SDS_P2;PMS_P1;PMS_P2;Temp;Humidity;BMP_temperature;BMP_pressure;BME280_temperature;BME280_humidity;BME280_pressure;Samples;Min_cycle;Max_cycle;Signal;HPM_P1;HPM_P2
2024/02/12 00:00:11;;;;;;;12.43;3.17;;;;;;;15.69;57.34;97801.72;5034489;28;20116;-78
2024/02/12 00:02:40;;;;;;;12.93;3.20;;;;;;;15.70;57.30;97810.44;5034972;28;20063;-77
2024/02/12 00:05:07;;;;;;;16.65;3.85;;;;;;;15.63;57.16;97805.03;5034287;28;20447;-78
2024/02/12 00:07:33;;;;;;;16.67;4.25;;;;;;;15.68;57.15;97810.59;5034106;28;20079;-79
2024/02/12 00:10:05;;;;;;;16.33;3.58;;;;;;;15.67;57.27;97805.50;5034272;28;20404;-79
2024/02/12 00:12:31;;;;;;;19.33;3.47;;;;;;;15.63;57.31;97805.03;5035088;28;20060;-77
2024/02/12 00:14:59;;;;;;;19.45;3.33;;;;;;;15.59;57.33;97795.84;5018156;28;20048;-77
2024/02/12 00:17:30;;;;;;;16.23;4.47;;;;;;;15.57;57.35;97797.84;5018791;28;20066;-78
2024/02/12 00:19:56;;;;;;;20.50;3.63;;;;;;;15.56;57.42;97783.06;5018928;28;20112;-79
2024/02/12 00:22:23;;;;;;;17.33;3.03;;;;;;;15.59;57.27;97797.66;5034620;28;20042;-78
2024/02/12 00:24:49;;;;;;;16.85;3.38;;;;;;;15.55;57.37;97790.13;5050579;28;20037;-79
2024/02/12 00:27:16;;;;;;;10.82;2.88;;;;;;;15.46;57.45;97795.59;5034494;28;20037;-78
2024/02/12 00:29:42;;;;;;;13.77;2.97;;;;;;;15.44;57.38;97787.06;5017796;28;20017;-78
2024/02/12 00:32:09;;;;;;;10.43;2.55;;;;;;;15.43;57.65;97785.41;5017600;28;20060;-78
2024/02/12 00:34:35;;;;;;;14.90;3.00;;;;;;;15.37;57.72;97785.13;5018090;28;20039;-79
2024/02/12 00:37:00;;;;;;;10.00;2.70;;;;;;;15.29;58.01;97779.88;5017459;28;20037;-78
2024/02/12 00:39:26;;;;;;;14.73;2.67;;;;;;;15.32;58.13;97786.59;5017419;28;20112;-77
2024/02/12 00:41:52;;;;;;;13.25;2.60;;;;;;;15.26;58.22;97774.97;5034109;28;20041;-79
2024/02/12 00:44:18;;;;;;;8.85;1.90;;;;;;;15.28;58.17;97775.63;5034111;28;20063;-79
2024/02/12 00:46:47;;;;;;;13.25;2.45;;;;;;;15.29;58.26;97779.06;5034198;28;20040;-79
2024/02/12 00:49:16;;;;;;;5.68;1.98;;;;;;;15.30;58.33;97783.34;5034823;28;20036;-78
2024/02/12 00:51:42;;;;;;;11.43;2.78;;;;;;;15.33;58.16;97773.28;5034370;28;20484;-77
2024/02/12 00:54:14;;;;;;;10.45;2.10;;;;;;;15.35;58.38;97784.47;5033952;28;20037;-79
2024/02/12 00:56:44;;;;;;;9.23;2.35;;;;;;;15.33;58.30;97778.53;5050677;28;20543;-78
2024/02/12 00:59:14;;;;;;;14.43;3.08;;;;;;;15.38;58.31;97778.03;5034081;28;20029;-78
2024/02/12 01:01:40;;;;;;;11.02;2.25;;;;;;;15.38;58.31;97763.06;5034250;28;20029;-80
2024/02/12 01:04:07;;;;;;;16.77;3.47;;;;;;;15.44;58.20;97772.09;5017400;28;20029;-78
2024/02/12 01:06:33;;;;;;;11.18;3.05;;;;;;;15.45;57.97;97773.75;5050627;28;20040;-78
2024/02/12 01:08:59;;;;;;;19.90;3.20;;;;;;;15.46;58.04;97764.03;5034434;28;20064;-77
2024/02/12 01:11:28;;;;;;;14.73;2.60;;;;;;;15.51;58.13;97772.22;5018640;28;20090;-79
2024/02/12 01:13:54;;;;;;;12.20;2.92;;;;;;;15.51;58.03;97754.66;5054153;28;20021;-79
2024/02/12 01:16:21;;;;;;;13.80;2.83;;;;;;;15.52;58.12;97747.56;5054600;28;20116;-79
2024/02/12 01:18:48;;;;;;;16.13;2.83;;;;;;;15.53;58.01;97744.75;5054684;28;20035;-78
2024/02/12 01:21:14;;;;;;;9.73;2.65;;;;;;;15.53;58.15;97747.41;5038109;28;20029;-79
2024/02/12 01:23:40;;;;;;;10.90;2.65;;;;;;;15.52;58.08;97740.47;5053554;28;20519;-78
2024/02/12 01:26:05;;;;;;;17.70;3.08;;;;;;;15.51;57.95;97741.50;5054340;28;20028;-77
2024/02/12 01:28:31;;;;;;;14.35;2.80;;;;;;;15.56;58.08;97747.06;5037604;28;20032;-78
2024/02/12 01:30:57;;;;;;;12.80;2.75;;;;;;;15.55;58.20;97739.34;5037576;28;20044;-78
2024/02/12 01:33:25;;;;;;;15.05;3.13;;;;;;;15.50;58.22;97728.50;5037966;28;20025;-78
2024/02/12 01:35:50;;;;;;;12.75;2.92;;;;;;;15.52;58.59;97726.53;5037876;28;20025;-78
2024/02/12 01:38:16;;;;;;;15.18;3.40;;;;;;;15.48;58.66;97722.59;5021289;28;20040;-80
2024/02/12 01:40:41;;;;;;;15.68;2.85;;;;;;;15.49;58.85;97725.06;5015457;28;20355;-81
2024/02/12 01:43:08;;;;;;;18.63;3.38;;;;;;;15.50;59.12;97718.00;5044397;28;20057;-82
2024/02/12 01:45:34;;;;;;;13.95;2.58;;;;;;;15.47;59.60;97716.53;5018360;28;20053;-82
2024/02/12 01:48:01;;;;;;;12.25;2.50;;;;;;;15.46;59.49;97714.88;5027705;28;20063;-81
2024/02/12 01:50:27;;;;;;;8.00;2.67;;;;;;;15.40;59.79;97707.69;5031248;28;20477;-79
2024/02/12 01:52:52;;;;;;;14.90;2.60;;;;;;;15.42;59.97;97712.75;5037249;28;20051;-81
2024/02/12 01:55:20;;;;;;;14.20;2.75;;;;;;;15.42;60.13;97715.38;5020639;28;20412;-81
2024/02/12 01:57:46;;;;;;;18.83;3.25;;;;;;;15.36;60.00;97695.88;5037372;28;20041;-81
2024/02/12 02:00:17;;;;;;;11.95;3.28;;;;;;;15.40;59.99;97712.13;5037848;28;20170;-80
2024/02/12 02:02:43;;;;;;;8.65;1.98;;;;;;;15.39;60.15;97703.44;5022217;28;20037;-80
2024/02/12 02:05:10;;;;;;;13.05;2.58;;;;;;;15.38;60.30;97696.53;5037308;28;20045;-81
2024/02/12 02:07:36;;;;;;;13.02;2.58;;;;;;;15.34;60.40;97693.41;5037875;28;20044;-82
2024/02/12 02:10:04;;;;;;;9.38;2.10;;;;;;;15.35;60.44;97692.44;5037377;28;20055;-81
2024/02/12 02:12:29;;;;;;;10.93;2.40;;;;;;;15.34;60.71;97682.91;5053878;28;20082;-80
2024/02/12 02:14:56;;;;;;;11.70;1.80;;;;;;;15.36;60.56;97678.28;5037090;28;20062;-80
2024/02/12 02:17:21;;;;;;;13.63;2.60;;;;;;;15.34;60.75;97668.94;5037628;28;20041;-81
2024/02/12 02:19:50;;;;;;;11.45;2.85;;;;;;;15.32;60.82;97666.50;5051970;28;20021;-81
2024/02/12 02:22:16;;;;;;;13.23;2.30;;;;;;;15.36;60.91;97667.75;5012224;28;20057;-81
2024/02/12 02:24:41;;;;;;;10.00;2.45;;;;;;;15.33;60.85;97665.47;5044433;28;20029;-81
2024/02/12 02:27:07;;;;;;;14.40;2.30;;;;;;;15.34;61.28;97672.38;5010225;28;20036;-81
2024/02/12 02:29:32;;;;;;;12.70;2.03;;;;;;;15.30;61.16;97657.94;5010550;28;20398;-81
2024/02/12 02:31:58;;;;;;;10.15;2.20;;;;;;;15.34;61.30;97666.31;5041621;28;20041;-80
2024/02/12 02:34:23;;;;;;;12.23;2.17;;;;;;;15.31;61.40;97658.78;5011128;28;20034;-80
2024/02/12 02:36:49;;;;;;;13.85;2.55;;;;;;;15.30;61.36;97652.69;5026135;28;20037;-79
2024/02/12 02:39:14;;;;;;;14.80;2.45;;;;;;;15.33;61.56;97656.78;5026167;28;20129;-79
2024/02/12 02:41:43;;;;;;;10.85;2.30;;;;;;;15.33;61.48;97664.66;5041544;28;20528;-78
2024/02/12 02:44:08;;;;;;;11.30;2.13;;;;;;;15.29;61.45;97652.84;5010806;28;20079;-78
2024/02/12 02:46:36;;;;;;;12.13;2.70;;;;;;;15.34;61.58;97661.88;5010912;28;20739;-79
2024/02/12 02:49:02;;;;;;;11.38;3.15;;;;;;;15.19;61.58;97638.13;5024423;28;20041;-79
2024/02/12 02:51:29;;;;;;;7.70;2.70;;;;;;;15.31;61.52;97649.06;5025801;28;20104;-78
2024/02/12 02:53:54;;;;;;;11.13;3.70;;;;;;;15.30;61.58;97647.41;5026830;28;20103;-77
2024/02/12 02:56:20;;;;;;;11.40;3.40;;;;;;;15.26;61.48;97642.69;5040753;28;20025;-79
2024/02/12 02:58:47;;;;;;;11.73;3.13;;;;;;;15.23;61.53;97649.13;5010985;28;20041;-78
2024/02/12 03:01:13;;;;;;;14.18;3.00;;;;;;;15.26;61.41;97653.19;5041474;28;20516;-79
2024/02/12 03:03:39;;;;;;;10.75;3.08;;;;;;;15.20;61.39;97662.63;5012107;28;20025;-78
2024/02/12 03:06:05;;;;;;;22.02;3.47;;;;;;;15.23;61.31;97659.63;5024328;28;20514;-79
2024/02/12 03:08:34;;;;;;;16.45;2.70;;;;;;;15.20;61.31;97660.78;5041832;28;20068;-80
2024/02/12 03:11:04;;;;;;;14.98;2.58;;;;;;;15.16;61.32;97656.06;5042629;28;20013;-78
2024/02/12 03:13:29;;;;;;;12.63;2.72;;;;;;;15.15;61.38;97660.50;5025031;28;20469;-78
2024/02/12 03:15:56;;;;;;;13.52;2.70;;;;;;;15.17;61.30;97655.88;5010085;28;20099;-79
2024/02/12 03:18:22;;;;;;;14.43;3.28;;;;;;;15.12;61.30;97645.06;5024090;28;20029;-78
2024/02/12 03:20:49;;;;;;;15.43;2.92;;;;;;;15.17;61.31;97652.44;5041700;28;20021;-78
2024/02/12 03:23:14;;;;;;;11.35;2.40;;;;;;;15.14;61.53;97645.72;5041886;28;20038;-79
2024/02/12 03:25:41;;;;;;;13.68;2.55;;;;;;;15.19;61.29;97650.44;5009548;28;20031;-79
2024/02/12 03:28:06;;;;;;;11.10;2.10;;;;;;;15.18;61.12;97652.28;5034402;28;20390;-80
2024/02/12 03:30:32;;;;;;;13.18;2.15;;;;;;;15.16;61.07;97649.00;5031892;28;20041;-78
2024/02/12 03:33:02;;;;;;;12.45;2.47;;;;;;;15.16;60.94;97653.44;5015603;28;20041;-78
2024/02/12 03:35:28;;;;;;;10.35;2.05;;;;;;;15.13;61.13;97640.63;5031090;28;20035;-78
2024/02/12 03:37:53;;;;;;;13.27;1.75;;;;;;;15.12;60.95;97639.81;5015581;28;20034;-78
2024/02/12 03:40:22;;;;;;;14.23;2.35;;;;;;;15.16;60.91;97643.75;5015918;28;20109;-77
2024/02/12 03:42:49;;;;;;;15.43;2.45;;;;;;;15.17;60.75;97632.22;5031875;28;20486;-79
2024/02/12 03:45:16;;;;;;;14.30;2.35;;;;;;;15.17;61.09;97620.91;5015874;28;20029;-78
2024/02/12 03:47:43;;;;;;;14.25;2.83;;;;;;;15.18;60.69;97615.47;5015449;28;20548;-78
2024/02/12 03:59:51;;;;;;;10.77;2.72;;;;;;;15.16;60.63;97606.09;5032246;28;20041;-78
2024/02/12 04:01:27;;;;;;;9.68;2.30;;;;;;;15.19;60.89;97621.53;4983787;28;20524;-76
2024/02/12 04:03:53;;;;;;;10.93;2.20;;;;;;;15.15;60.88;97610.56;5010785;28;20041;-78
2024/02/12 04:06:19;;;;;;;13.07;2.63;;;;;;;15.18;60.84;97614.63;4994165;28;20418;-78
2024/02/12 04:08:47;;;;;;;13.38;2.55;;;;;;;15.18;60.81;97619.88;4978161;28;20037;-78
2024/02/12 04:11:13;;;;;;;12.25;2.33;;;;;;;15.09;60.94;97606.00;4993906;28;20437;-77
2024/02/12 04:13:38;;;;;;;15.35;2.88;;;;;;;15.15;61.04;97623.69;4978279;28;20053;-78
2024/02/12 04:16:06;;;;;;;23.45;3.30;;;;;;;15.15;60.96;97626.34;4977957;28;20060;-77
2024/02/12 04:18:35;;;;;;;15.18;3.42;;;;;;;15.14;61.02;97621.25;4978405;28;20034;-78
2024/02/12 04:21:08;;;;;;;18.52;3.58;;;;;;;15.15;61.01;97634.22;5010788;28;20505;-77
2024/02/12 04:23:37;;;;;;;14.13;2.53;;;;;;;15.12;61.02;97637.19;4995160;28;20057;-79
2024/02/12 04:26:06;;;;;;;12.60;2.90;;;;;;;15.11;61.16;97632.09;4978933;28;20257;-80
2024/02/12 04:28:32;;;;;;;20.88;3.47;;;;;;;15.05;61.44;97624.91;5010263;28;20478;-78
2024/02/12 04:30:57;;;;;;;12.85;3.40;;;;;;;15.05;61.34;97630.97;5000271;28;20076;-82
2024/02/12 04:33:23;;;;;;;14.43;3.35;;;;;;;14.98;62.22;97628.22;5013441;28;20045;-77
2024/02/12 04:35:49;;;;;;;18.02;3.53;;;;;;;14.91;62.46;97614.16;5038662;28;20424;-79
2024/02/12 04:38:14;;;;;;;14.80;4.05;;;;;;;14.92;62.43;97615.78;5017516;28;20028;-77
2024/02/12 04:40:40;;;;;;;23.27;5.15;;;;;;;14.90;62.85;97617.75;5034021;28;20557;-77
2024/02/12 04:43:05;;;;;;;13.43;3.53;;;;;;;15.02;65.80;97608.50;5033595;28;20056;-80
2024/02/12 04:45:31;;;;;;;10.50;3.03;;;;;;;15.16;65.77;97603.47;5016916;28;20461;-79
2024/02/12 04:47:56;;;;;;;12.25;3.35;;;;;;;15.16;65.57;97592.97;5050036;28;20115;-77
2024/02/12 04:50:23;;;;;;;16.33;3.25;;;;;;;15.14;65.13;97590.50;5016937;28;20025;-82
2024/02/12 04:52:48;;;;;;;13.02;3.50;;;;;;;15.13;64.92;97594.16;5017329;28;20068;-82
2024/02/12 04:55:15;;;;;;;11.60;3.25;;;;;;;15.10;64.62;97593.66;5033899;28;20452;-86
2024/02/12 04:57:41;;;;;;;15.82;3.35;;;;;;;15.10;65.35;97588.41;5021322;28;20056;-81
2024/02/12 05:00:10;;;;;;;11.10;2.92;;;;;;;15.05;64.91;97574.97;5050263;28;20045;-86
2024/02/12 05:02:37;;;;;;;12.48;3.45;;;;;;;15.05;64.69;97578.41;5034931;28;20439;-83
2024/02/12 05:05:05;;;;;;;15.65;3.15;;;;;;;15.04;64.65;97573.31;5037138;28;20036;-83
2024/02/12 05:07:31;;;;;;;11.73;2.97;;;;;;;15.00;64.16;97570.22;5018483;28;20110;-78
2024/02/12 05:09:56;;;;;;;11.02;3.08;;;;;;;15.05;66.28;97565.28;5050610;28;20029;-75
2024/02/12 05:12:22;;;;;;;12.82;2.80;;;;;;;15.05;65.41;97565.28;5018188;28;20049;-75
2024/02/12 05:14:47;;;;;;;10.57;2.70;;;;;;;15.08;65.26;97569.38;5013658;28;20065;-75
2024/02/12 05:17:13;;;;;;;7.43;2.63;;;;;;;15.02;65.18;97558.56;5030022;28;20095;-73
2024/02/12 05:22:34;;;;;;;12.98;3.13;;;;;;;15.02;64.95;97553.31;5029684;28;20183;-73
2024/02/12 05:25:01;;;;;;;9.67;2.83;;;;;;;15.01;64.88;97554.28;5029927;28;20378;-73
2024/02/12 05:27:27;;;;;;;16.45;2.65;;;;;;;14.99;64.70;97550.19;5014030;28;20389;-75
2024/02/12 05:29:54;;;;;;;10.55;2.50;;;;;;;14.98;64.94;97546.75;5013579;28;20033;-73
2024/02/12 05:32:19;;;;;;;7.03;2.13;;;;;;;14.98;64.46;97554.63;5029378;28;20038;-73
2024/02/12 05:34:48;;;;;;;11.70;3.00;;;;;;;14.97;64.57;97553.00;5012973;28;20060;-75
2024/02/12 05:37:14;;;;;;;8.80;2.45;;;;;;;14.95;64.55;97559.44;5029113;28;20045;-73
2024/02/12 05:39:40;;;;;;;8.63;2.47;;;;;;;14.91;64.48;97545.00;5029599;28;20500;-73
2024/02/12 05:42:06;;;;;;;10.07;2.65;;;;;;;14.93;64.55;97562.25;5030168;28;20095;-73
2024/02/12 05:44:37;;;;;;;8.25;2.75;;;;;;;14.87;64.40;97551.59;5013248;28;20073;-73
2024/02/12 05:47:05;;;;;;;9.63;3.17;;;;;;;14.83;64.33;97557.22;5013687;28;20041;-73
2024/02/12 05:49:32;;;;;;;9.52;3.90;;;;;;;14.86;64.40;97563.91;5013471;28;20084;-73
2024/02/12 05:51:59;;;;;;;11.40;3.60;;;;;;;14.84;64.26;97558.00;5029575;28;20108;-73
2024/02/12 05:54:25;;;;;;;17.15;3.38;;;;;;;14.82;64.38;97570.50;5031161;28;20037;-74
2024/02/12 05:56:51;;;;;;;11.82;3.50;;;;;;;14.73;64.45;97551.34;5029439;28;20033;-76
2024/02/12 05:59:16;;;;;;;11.13;3.17;;;;;;;14.74;64.42;97560.06;5033233;28;20030;-72
2024/02/12 06:01:42;;;;;;;12.40;3.65;;;;;;;14.76;64.46;97572.00;5016888;28;20045;-75
2024/02/12 06:04:08;;;;;;;14.52;3.20;;;;;;;14.72;64.49;97568.09;5017163;28;20048;-74
2024/02/12 06:06:38;;;;;;;11.68;3.30;;;;;;;14.70;64.49;97556.94;5032967;28;20044;-74
2024/02/12 06:09:03;;;;;;;12.70;3.10;;;;;;;14.71;64.46;97552.53;5016700;28;20108;-74
2024/02/12 06:11:29;;;;;;;14.38;3.40;;;;;;;14.74;64.32;97550.34;5016434;28;20469;-74
2024/02/12 06:13:54;;;;;;;12.70;2.92;;;;;;;14.73;64.36;97547.91;5016310;28;20048;-77
2024/02/12 06:16:20;;;;;;;10.73;3.17;;;;;;;14.73;64.44;97556.59;5032724;28;20036;-74
2024/02/12 06:18:46;;;;;;;12.02;3.28;;;;;;;14.73;64.28;97556.59;5032577;28;20067;-73
2024/02/12 06:21:12;;;;;;;10.90;3.67;;;;;;;14.74;64.39;97558.25;5033178;28;20049;-74
2024/02/12 06:23:37;;;;;;;9.25;3.42;;;;;;;14.69;64.53;97551.84;5034079;28;20412;-73
2024/02/12 06:26:03;;;;;;;12.43;3.35;;;;;;;14.68;64.37;97544.97;5016077;28;20040;-75
2024/02/12 06:28:29;;;;;;;11.63;3.05;;;;;;;14.77;66.10;97564.94;5019401;28;20025;-77
2024/02/12 06:30:54;;;;;;;12.38;3.20;;;;;;;14.80;65.80;97561.97;5034880;28;20030;-74
2024/02/12 06:33:20;;;;;;;8.35;2.20;;;;;;;14.92;67.93;97555.34;5032725;28;20543;-76
2024/02/12 06:35:46;;;;;;;8.98;2.63;;;;;;;14.94;67.54;97547.28;5015630;28;20041;-76
2024/02/12 06:38:11;;;;;;;16.10;2.85;;;;;;;14.98;67.42;97544.13;5032656;28;20037;-76
2024/02/12 06:40:37;;;;;;;12.77;2.90;;;;;;;15.00;67.11;97544.75;5032406;28;20087;-75
2024/02/12 06:43:04;;;;;;;12.77;2.78;;;;;;;14.93;66.80;97538.59;5031765;28;20358;-75
2024/02/12 06:45:32;;;;;;;14.88;3.40;;;;;;;14.90;66.86;97527.63;5016462;28;20038;-78
2024/02/12 06:47:58;;;;;;;13.38;2.88;;;;;;;14.90;67.16;97525.00;5016240;28;20029;-79
2024/02/12 06:50:24;;;;;;;13.25;2.53;;;;;;;14.94;68.04;97513.13;5020143;28;20033;-79
2024/02/12 06:52:49;;;;;;;10.57;2.40;;;;;;;15.04;68.13;97494.50;5016248;28;20037;-79
2024/02/12 06:55:15;;;;;;;21.10;2.75;;;;;;;14.96;67.86;97476.97;5000282;28;20128;-77
2024/02/12 06:57:42;;;;;;;8.75;2.53;;;;;;;14.96;67.66;97458.56;5016244;28;20033;-77
2024/02/12 07:00:08;;;;;;;12.07;2.50;;;;;;;14.92;67.86;97465.19;5032684;28;20027;-79
2024/02/12 07:02:35;;;;;;;12.60;2.80;;;;;;;14.88;67.86;97469.16;5015958;28;20029;-77
2024/02/12 07:05:04;;;;;;;12.45;2.45;;;;;;;14.87;67.80;97483.31;5016228;28;20095;-79
2024/02/12 07:07:33;;;;;;;12.35;2.53;;;;;;;14.86;67.79;97495.59;5000171;28;20057;-78
2024/02/12 07:09:59;;;;;;;15.55;2.95;;;;;;;14.84;67.80;97514.16;5015603;28;20503;-79
2024/02/12 07:12:26;;;;;;;11.55;3.05;;;;;;;14.79;67.91;97506.00;5015840;28;20029;-77
2024/02/12 07:14:51;;;;;;;12.05;2.60;;;;;;;14.84;67.71;97493.16;5015942;28;20025;-82
2024/02/12 07:17:18;;;;;;;11.63;2.78;;;;;;;14.84;67.45;97489.72;5016309;28;20036;-79
2024/02/12 07:19:47;;;;;;;14.00;2.72;;;;;;;14.83;67.62;97506.47;5032371;28;20025;-79
2024/02/12 07:22:13;;;;;;;17.67;2.70;;;;;;;14.79;67.53;97527.00;5015999;28;20493;-78
2024/02/12 07:24:40;;;;;;;9.30;2.35;;;;;;;14.77;67.57;97513.25;4999213;28;20069;-79
2024/02/12 07:27:07;;;;;;;13.60;3.17;;;;;;;14.87;67.14;97530.59;5016260;28;20044;-80
2024/02/12 07:29:32;;;;;;;12.85;3.40;;;;;;;16.27;64.18;97538.91;5015870;28;20056;-83
2024/02/12 07:31:58;;;;;;;9.50;2.88;;;;;;;19.21;57.20;97524.38;5015680;28;20472;-77
2024/02/12 07:34:23;;;;;;;10.35;2.80;;;;;;;20.21;54.48;97516.38;5015660;28;20083;-81
2024/02/12 07:36:49;;;;;;;6.35;2.15;;;;;;;21.48;51.75;97499.78;4999151;28;20116;-80
2024/02/12 07:39:17;;;;;;;13.57;2.13;;;;;;;22.55;50.36;97485.41;5015337;28;20029;-78
2024/02/12 07:41:42;;;;;;;;;;;;;;;22.83;49.79;97489.31;5032759;28;20100;-78
2024/02/12 07:44:10;;;;;;;7.80;2.05;;;;;;;22.58;50.94;97498.25;5014612;28;19996;-78
2024/02/12 07:46:38;;;;;;;10.05;2.28;;;;;;;22.47;51.14;97491.03;5031250;28;20025;-77
2024/02/12 07:49:05;;;;;;;11.32;2.22;;;;;;;22.02;52.13;97512.56;5014272;28;20094;-79
2024/02/12 07:51:31;;;;;;;6.57;1.90;;;;;;;21.69;52.43;97516.38;4998647;28;20026;-82
2024/02/12 07:53:57;;;;;;;8.48;1.77;;;;;;;21.56;52.49;97519.16;5014430;28;20087;-74
2024/02/12 07:56:23;;;;;;;7.38;2.08;;;;;;;21.56;52.18;97525.25;5016063;28;20037;-75
2024/02/12 07:58:49;;;;;;;6.57;1.77;;;;;;;21.59;51.89;97524.03;5015020;28;20040;-75
2024/02/12 08:01:15;;;;;;;9.13;1.52;;;;;;;21.24;52.48;97519.97;5031275;28;20026;-76
2024/02/12 08:03:42;;;;;;;5.80;1.50;;;;;;;20.94;53.14;97525.06;5014939;28;20405;-75
2024/02/12 08:06:08;;;;;;;9.75;1.60;;;;;;;20.58;53.46;97507.88;5014889;28;20499;-75
2024/02/12 08:08:34;;;;;;;4.22;1.60;;;;;;;20.75;52.72;97503.75;5032275;28;20468;-75
2024/02/12 08:11:00;;;;;;;6.85;1.33;;;;;;;21.52;52.64;97515.28;5014460;28;20060;-74
2024/02/12 08:13:25;;;;;;;4.05;1.25;;;;;;;22.22;52.01;97530.97;5031079;28;20046;-75
2024/02/12 08:15:50;;;;;;;5.38;1.30;;;;;;;22.47;51.67;97536.25;5014975;28;20493;-75
2024/02/12 08:18:17;;;;;;;8.65;1.80;;;;;;;22.71;51.03;97534.50;5014708;28;20030;-79
2024/02/12 08:20:42;;;;;;;4.53;1.20;;;;;;;22.87;50.95;97537.59;4998090;28;20025;-76
2024/02/12 08:23:08;;;;;;;7.32;1.20;;;;;;;22.62;51.14;97549.13;5031498;28;20064;-77
2024/02/12 08:25:33;;;;;;;8.20;1.10;;;;;;;22.11;52.05;97558.28;5014720;28;20051;-77
2024/02/12 08:27:59;;;;;;;5.22;1.52;;;;;;;21.68;52.44;97576.63;5031139;28;20161;-76
2024/02/12 08:30:24;;;;;;;3.03;1.10;;;;;;;21.27;52.07;97585.88;5032385;28;20431;-78
2024/02/12 08:32:49;;;;;;;4.75;1.60;;;;;;;20.85;52.27;97601.41;5031218;28;20045;-76
2024/02/12 08:35:15;;;;;;;4.03;1.10;;;;;;;20.54;52.50;97604.75;5031020;28;20393;-75
2024/02/12 08:37:41;;;;;;;3.95;1.20;;;;;;;20.18;52.75;97606.88;5014599;28;20064;-76
2024/02/12 08:40:14;;;;;;;5.13;1.20;;;;;;;19.73;53.61;97597.91;5030315;28;20037;-78
2024/02/12 08:42:44;;;;;;;3.72;1.10;;;;;;;19.31;54.77;97625.34;4999964;28;20084;-77
2024/02/12 08:45:10;;;;;;;4.53;0.90;;;;;;;19.02;55.62;97633.59;5015260;28;20409;-77
2024/02/12 08:47:35;;;;;;;3.97;1.33;;;;;;;18.80;56.06;97623.94;4998384;28;20033;-80
2024/02/12 08:50:03;;;;;;;4.57;0.95;;;;;;;18.63;56.36;97614.72;5014060;28;20037;-79
2024/02/12 08:52:31;;;;;;;4.70;1.00;;;;;;;18.59;56.79;97614.28;5014578;28;20029;-74
2024/02/12 08:55:01;;;;;;;3.10;0.85;;;;;;;18.70;56.64;97620.84;5030873;28;20033;-76
2024/02/12 08:57:27;;;;;;;3.15;1.02;;;;;;;19.12;55.59;97615.53;5014944;28;20516;-76
2024/02/12 08:59:52;;;;;;;4.28;1.38;;;;;;;19.31;55.46;97617.41;5014235;28;20037;-75
2024/02/12 09:02:19;;;;;;;1.85;0.73;;;;;;;19.33;55.81;97618.03;5030403;28;20040;-76
2024/02/12 09:04:44;;;;;;;2.22;0.77;;;;;;;19.24;56.11;97629.00;5014166;28;20497;-76
2024/02/12 09:07:11;;;;;;;4.20;0.77;;;;;;;19.22;56.08;97644.25;5030716;28;20057;-77
2024/02/12 09:09:37;;;;;;;2.53;0.95;;;;;;;19.48;55.30;97632.91;5031689;28;20151;-76
2024/02/12 09:12:02;;;;;;;2.80;0.77;;;;;;;20.06;54.05;97619.13;5031547;28;20116;-76
2024/02/12 09:14:28;;;;;;;4.57;0.90;;;;;;;20.46;53.42;97613.75;5014160;28;20061;-76
2024/02/12 09:16:53;;;;;;;2.95;0.70;;;;;;;20.55;53.35;97586.00;5031876;28;20037;-75
2024/02/12 09:19:19;;;;;;;2.75;0.82;;;;;;;20.93;52.54;97573.84;5013798;28;20125;-75
2024/02/12 09:21:45;;;;;;;3.47;0.75;;;;;;;21.44;51.46;97559.66;5013841;28;20065;-75
2024/02/12 09:24:11;;;;;;;3.80;0.70;;;;;;;22.11;50.30;97560.94;5014132;28;20503;-75
2024/02/12 09:26:37;;;;;;;2.50;0.77;;;;;;;22.32;50.02;97565.03;5014167;28;20432;-75
2024/02/12 09:29:03;;;;;;;1.90;0.65;;;;;;;22.63;49.38;97549.94;5014073;28;20040;-77
2024/02/12 09:31:33;;;;;;;1.95;0.57;;;;;;;24.00;46.66;97561.69;5013730;28;20481;-76
2024/02/12 09:34:02;;;;;;;2.47;0.80;;;;;;;25.52;43.66;97579.34;5016722;28;20096;-76
2024/02/12 09:36:31;;;;;;;2.63;0.63;;;;;;;26.85;40.96;97601.88;5034437;28;20037;-78
2024/02/12 09:38:57;;;;;;;2.05;0.60;;;;;;;28.44;38.39;97600.56;5034829;28;20029;-78
2024/02/12 09:41:26;;;;;;;2.50;0.80;;;;;;;28.56;37.99;97600.38;5017536;28;20087;-78
2024/02/12 09:43:57;;;;;;;4.50;0.50;;;;;;;27.75;39.62;97596.06;5033962;28;20056;-77
2024/02/12 09:46:22;;;;;;;2.05;0.60;;;;;;;26.96;41.03;97605.47;5018196;28;20499;-76
2024/02/12 09:48:48;;;;;;;0.95;0.47;;;;;;;27.33;40.90;97610.19;5034442;28;20041;-76
2024/02/12 09:51:15;;;;;;;1.60;0.55;;;;;;;26.82;41.72;97623.78;5017577;28;20477;-75
2024/02/12 09:53:42;;;;;;;1.13;0.55;;;;;;;26.35;42.68;97609.78;5034239;28;20047;-75
2024/02/12 09:56:07;;;;;;;1.90;0.43;;;;;;;26.47;42.19;97603.50;5018159;28;20025;-75
2024/02/12 09:58:33;;;;;;;2.20;0.60;;;;;;;26.12;43.25;97602.75;5034391;28;20386;-76
2024/02/12 10:01:01;;;;;;;0.93;0.47;;;;;;;25.78;43.83;97591.28;5034170;28;20116;-76
2024/02/12 10:03:28;;;;;;;1.30;0.57;;;;;;;26.21;42.94;97589.81;5017184;28;20516;-76
2024/02/12 10:05:53;;;;;;;2.53;0.40;;;;;;;26.42;42.82;97584.72;5017409;28;20128;-76
2024/02/12 10:08:25;;;;;;;1.95;0.60;;;;;;;26.79;42.27;97568.06;5033980;28;20115;-77
2024/02/12 10:10:52;;;;;;;1.85;0.55;;;;;;;27.11;41.74;97562.78;5017566;28;20021;-78
2024/02/12 10:13:17;;;;;;;3.20;0.50;;;;;;;26.92;41.83;97561.53;5017248;28;20041;-77
2024/02/12 10:15:43;;;;;;;2.08;0.55;;;;;;;27.19;41.51;97548.13;5017437;28;20137;-76
2024/02/12 10:18:11;;;;;;;2.30;0.80;;;;;;;27.36;41.00;97556.09;5016895;28;20107;-78
2024/02/12 10:20:39;;;;;;;1.70;0.50;;;;;;;27.44;40.59;97547.59;5016853;28;20033;-76
2024/02/12 10:23:05;;;;;;;2.40;0.60;;;;;;;27.57;39.97;97552.50;5017496;28;20025;-77
2024/02/12 10:25:32;;;;;;;1.75;0.60;;;;;;;27.62;40.19;97549.06;5000602;28;20152;-76
2024/02/12 10:27:59;;;;;;;2.10;0.60;;;;;;;27.74;40.03;97541.66;5016891;28;20021;-76
2024/02/12 10:30:24;;;;;;;1.77;0.50;;;;;;;27.81;39.96;97536.06;5032754;28;20373;-76
2024/02/12 10:32:50;;;;;;;1.42;0.60;;;;;;;27.90;39.93;97549.81;5033003;28;20044;-76
2024/02/12 10:35:15;;;;;;;1.10;0.50;;;;;;;28.07;39.48;97546.97;5016465;28;20029;-75
2024/02/12 10:37:41;;;;;;;1.85;0.63;;;;;;;28.13;39.61;97549.44;5016298;28;20021;-76
2024/02/12 10:40:12;;;;;;;1.63;0.52;;;;;;;28.14;39.41;97551.03;5032207;28;20041;-76
2024/02/12 10:42:44;;;;;;;2.45;0.68;;;;;;;27.87;40.15;97550.31;5017028;28;20481;-76
2024/02/12 10:45:10;;;;;;;2.88;0.47;;;;;;;27.65;39.75;97543.19;5015528;28;20077;-77
2024/02/12 10:47:36;;;;;;;2.50;0.40;;;;;;;27.53;40.10;97551.41;5016212;28;20029;-76
2024/02/12 10:50:03;;;;;;;2.03;0.55;;;;;;;27.27;40.51;97542.31;5016198;28;20036;-77
2024/02/12 10:52:29;;;;;;;1.27;0.35;;;;;;;27.22;40.52;97559.16;5032075;28;20040;-75
2024/02/12 10:54:55;;;;;;;4.00;0.60;;;;;;;27.26;40.32;97549.56;5016243;28;20129;-77
2024/02/12 10:57:22;;;;;;;3.63;0.60;;;;;;;27.10;40.57;97552.34;4999585;28;20064;-76
2024/02/12 10:59:58;;;;;;;3.67;0.53;;;;;;;26.86;41.23;97557.97;5016574;28;20485;-74
2024/02/12 11:02:24;;;;;;;2.85;0.50;;;;;;;26.87;40.69;97563.09;5015853;28;20287;-77
2024/02/12 11:04:55;;;;;;;1.10;0.40;;;;;;;26.48;40.64;97554.31;4999413;28;20429;-78
2024/02/12 11:07:24;;;;;;;1.90;0.50;;;;;;;26.22;40.72;97555.84;5016115;28;20037;-76
2024/02/12 11:10:18;;;;;;;3.38;0.70;;;;;;;25.86;41.58;97561.47;5016033;28;20135;-77
2024/02/12 11:12:46;;;;;;;5.15;0.55;;;;;;;25.49;41.89;97564.63;5014740;28;20507;-75
2024/02/12 11:15:19;;;;;;;2.42;0.43;;;;;;;25.12;41.96;97556.22;5015042;28;20026;-75
2024/02/12 11:17:44;;;;;;;3.22;0.63;;;;;;;24.80;42.12;97564.72;5015045;28;20120;-77
2024/02/12 11:20:20;;;;;;;8.90;1.35;;;;;;;24.45;42.57;97566.41;4999057;28;20452;-76
2024/02/12 11:22:46;;;;;;;3.90;0.50;;;;;;;24.28;42.67;97560.97;5015757;28;20488;-76
2024/02/12 11:25:15;;;;;;;4.18;0.90;;;;;;;24.13;42.72;97552.63;5031827;28;20094;-74
2024/02/12 11:27:54;;;;;;;2.53;0.55;;;;;;;23.85;42.64;97538.19;5031703;28;20132;-76
2024/02/12 11:30:20;;;;;;;5.50;0.82;;;;;;;23.60;42.55;97541.03;5016841;28;20138;-75
2024/02/12 11:32:48;;;;;;;4.43;0.70;;;;;;;23.34;42.96;97532.44;5031909;28;20029;-75
2024/02/12 11:35:18;;;;;;;7.75;0.90;;;;;;;23.13;43.46;97528.44;5032817;28;20037;-78
2024/02/12 11:37:56;;;;;;;4.88;0.65;;;;;;;22.86;44.41;97536.75;4999174;28;20068;-76